Time;durP1;ratioP1;P1;durP2;ratioP2;P2;SDS_P1;SDS_P2;PMS_P1;PMS_P2;Temp;Humidity;BMP_temperature;BMP_pressure;BME280_temperature;BME280_humidity;BME280_pressure;Samples;Min_cycle;Max_cycle;Signal;HPM_P1;HPM_P2
2024/01/28 00:00:44;;;;;;;22.52;13.88;;;-0.20;39.40;;;;;;4995065;28;20176;-69
2024/01/28 00:03:09;;;;;;;18.03;13.40;;;-0.20;38.80;;;;;;4995268;28;20921;-69
2024/01/28 00:05:36;;;;;;;23.67;13.27;;;-0.30;40.00;;;;;;4993660;28;20183;-68
2024/01/28 00:08:04;;;;;;;24.50;15.75;;;-0.20;40.70;;;;;;4975717;28;20185;-68
2024/01/28 00:10:29;;;;;;;22.05;13.30;;;-0.20;39.40;;;;;;4974316;28;20189;-68
2024/01/28 00:12:55;;;;;;;22.83;15.20;;;-0.20;38.90;;;;;;4975269;28;20227;-68
2024/01/28 00:15:20;;;;;;;22.67;14.70;;;-0.20;40.00;;;;;;4974972;28;20681;-68
2024/01/28 00:17:46;;;;;;;17.20;13.83;;;-0.20;40.30;;;;;;4993019;28;20208;-68
2024/01/28 00:20:11;;;;;;;20.33;14.30;;;-0.20;40.70;;;;;;4993948;28;20592;-68
2024/01/28 00:22:37;;;;;;;20.90;14.77;;;-0.20;41.20;;;;;;4975794;28;20185;-68
2024/01/28 00:25:03;;;;;;;23.47;16.33;;;-0.20;41.40;;;;;;4974791;28;20208;-69
2024/01/28 00:27:28;;;;;;;18.73;13.23;;;-0.20;40.40;;;;;;4974900;28;20205;-68
2024/01/28 00:29:54;;;;;;;19.40;13.40;;;-0.20;41.20;;;;;;4975051;28;20182;-69
2024/01/28 00:32:20;;;;;;;22.03;15.20;;;-0.20;41.40;;;;;;4974958;28;20647;-68
2024/01/28 00:34:45;;;;;;;18.80;14.40;;;-0.20;42.20;;;;;;4974608;28;20201;-68
2024/01/28 00:37:11;;;;;;;22.17;14.43;;;-0.10;42.70;;;;;;4974840;28;20759;-69
2024/01/28 00:39:36;;;;;;;23.43;15.53;;;-0.10;40.80;;;;;;4974690;28;20264;-68
2024/01/28 00:42:04;;;;;;;20.40;14.83;;;-0.10;41.60;;;;;;4974775;28;20173;-68
2024/01/28 00:44:30;;;;;;;24.40;15.73;;;-0.10;40.70;;;;;;4974727;28;20177;-68
2024/01/28 00:46:57;;;;;;;17.97;13.23;;;-0.10;40.80;;;;;;4974606;28;20692;-68
2024/01/28 00:49:29;;;;;;;20.42;15.50;;;-0.20;39.10;;;;;;4974632;28;20487;-69
2024/01/28 00:51:58;;;;;;;21.27;14.40;;;-0.20;40.30;;;;;;4974838;28;20181;-68
2024/01/28 00:54:26;;;;;;;21.33;14.15;;;-0.20;40.30;;;;;;4974677;28;20209;-68
2024/01/28 00:56:52;;;;;;;19.35;14.90;;;-0.30;40.10;;;;;;4974034;28;20209;-68
2024/01/28 00:59:18;;;;;;;18.20;13.27;;;-0.30;39.60;;;;;;4973779;28;20300;-67
2024/01/28 01:01:44;;;;;;;21.83;14.63;;;-0.30;38.70;;;;;;4991383;28;20208;-68
2024/01/28 01:04:10;;;;;;;19.83;14.50;;;-0.40;37.90;;;;;;4993613;28;20215;-69
2024/01/28 01:06:37;;;;;;;25.50;15.40;;;-0.40;38.10;;;;;;4993254;28;20825;-67
2024/01/28 01:09:03;;;;;;;18.65;13.90;;;-0.40;37.30;;;;;;4992158;28;20172;-67
2024/01/28 01:11:29;;;;;;;21.70;13.30;;;-0.50;37.40;;;;;;4993608;28;20709;-68
2024/01/28 01:13:54;;;;;;;17.33;12.63;;;-0.60;36.80;;;;;;4992237;28;20430;-68
2024/01/28 01:16:20;;;;;;;16.97;12.37;;;-0.60;38.00;;;;;;4992935;28;20247;-68
2024/01/28 01:18:46;;;;;;;19.47;13.90;;;-0.60;38.60;;;;;;4983705;28;20196;-69
2024/01/28 01:21:11;;;;;;;18.30;13.95;;;-0.60;38.40;;;;;;4974180;28;20232;-69
2024/01/28 01:23:37;;;;;;;19.63;13.97;;;-0.70;38.20;;;;;;4974033;28;20653;-68
2024/01/28 01:26:02;;;;;;;23.37;14.23;;;-0.80;37.50;;;;;;4972372;28;20683;-68
2024/01/28 01:28:31;;;;;;;21.80;14.13;;;-0.80;39.00;;;;;;4973998;28;20677;-68
2024/01/28 01:31:01;;;;;;;17.75;13.50;;;-0.80;37.90;;;;;;4973086;28;20226;-68
2024/01/28 01:33:27;;;;;;;18.80;12.52;;;-0.80;38.50;;;;;;4973845;28;20180;-67
2024/01/28 01:35:52;;;;;;;22.67;12.57;;;-0.90;37.60;;;;;;4973326;28;20696;-68
2024/01/28 01:38:18;;;;;;;25.40;15.23;;;-1.00;38.20;;;;;;4973591;28;20208;-68
2024/01/28 01:40:43;;;;;;;23.07;14.20;;;-1.00;38.90;;;;;;4980389;28;20176;-67
2024/01/28 01:43:09;;;;;;;15.63;13.43;;;-0.90;39.60;;;;;;4993137;28;20241;-67
2024/01/28 01:45:37;;;;;;;20.17;13.43;;;-0.90;41.30;;;;;;4992498;28;20664;-68
2024/01/28 01:48:10;;;;;;;23.85;13.77;;;-0.90;40.70;;;;;;4992978;28;20216;-67
2024/01/28 01:50:36;;;;;;;27.17;13.68;;;-1.00;38.90;;;;;;4992890;28;20188;-67
2024/01/28 01:53:03;;;;;;;20.15;14.20;;;-1.10;39.00;;;;;;4991550;28;20568;-68
2024/01/28 01:55:30;;;;;;;18.23;14.30;;;-1.10;40.60;;;;;;4976990;28;20219;-67
2024/01/28 01:57:56;;;;;;;21.33;14.88;;;-1.10;40.60;;;;;;4978397;28;20182;-68
2024/01/28 02:00:22;;;;;;;18.90;14.00;;;-1.10;41.30;;;;;;4973394;28;20204;-68
2024/01/28 02:02:47;;;;;;;17.40;14.20;;;-1.10;41.40;;;;;;4973249;28;20208;-68
2024/01/28 02:05:13;;;;;;;19.70;13.43;;;-1.10;42.00;;;;;;4973110;28;20666;-68
2024/01/28 02:07:39;;;;;;;16.43;12.17;;;-1.10;41.60;;;;;;4973038;28;20223;-67
2024/01/28 02:10:06;;;;;;;20.33;15.00;;;-1.10;41.40;;;;;;4971718;28;20271;-68
2024/01/28 02:12:31;;;;;;;19.75;13.10;;;-1.20;40.10;;;;;;4972055;28;20622;-68
2024/01/28 02:15:11;;;;;;;17.43;14.23;;;-1.20;40.90;;;;;;4972910;28;20208;-67
2024/01/28 02:17:37;;;;;;;16.25;13.02;;;-1.20;40.90;;;;;;4973259;28;20204;-68
2024/01/28 02:20:03;;;;;;;18.83;13.10;;;-1.30;40.10;;;;;;4992413;28;20183;-68
2024/01/28 02:22:29;;;;;;;24.00;15.38;;;-1.20;42.40;;;;;;4992590;28;20185;-67
2024/01/28 02:24:57;;;;;;;23.70;14.87;;;-1.30;40.80;;;;;;4991885;28;20188;-68
2024/01/28 02:27:22;;;;;;;18.73;15.07;;;-1.30;41.80;;;;;;4992293;28;20272;-68
2024/01/28 02:29:48;;;;;;;24.90;15.63;;;-1.20;42.70;;;;;;4992194;28;20194;-67
2024/01/28 02:32:16;;;;;;;17.87;14.40;;;-1.20;41.60;;;;;;4992156;28;20328;-67
2024/01/28 02:34:41;;;;;;;17.63;14.20;;;-1.20;42.70;;;;;;4991827;28;20274;-68
2024/01/28 02:37:08;;;;;;;16.43;13.63;;;-1.20;43.10;;;;;;4979804;28;20196;-69
2024/01/28 02:39:33;;;;;;;23.33;17.15;;;-1.20;43.00;;;;;;4992085;28;20195;-68
2024/01/28 02:41:59;;;;;;;22.77;16.83;;;-1.30;42.90;;;;;;4992135;28;20219;-68
2024/01/28 02:44:25;;;;;;;23.17;16.60;;;-1.30;43.00;;;;;;4991040;28;20187;-67
2024/01/28 02:46:50;;;;;;;16.87;12.57;;;-1.30;42.90;;;;;;4992153;28;20704;-68
2024/01/28 02:49:16;;;;;;;19.00;14.20;;;-1.30;44.00;;;;;;4990595;28;20250;-68
2024/01/28 02:51:45;;;;;;;23.20;16.23;;;-1.30;44.40;;;;;;4992264;28;20217;-68
2024/01/28 02:54:11;;;;;;;21.75;15.60;;;-1.30;43.00;;;;;;4991735;28;20545;-68
2024/01/28 02:56:36;;;;;;;25.45;17.25;;;-1.40;42.90;;;;;;4991991;28;20545;-67
2024/01/28 02:59:03;;;;;;;22.90;17.00;;;-1.40;42.90;;;;;;4987243;28;20200;-67
2024/01/28 03:01:29;;;;;;;25.27;15.90;;;-1.50;42.80;;;;;;4972628;28;20551;-68
2024/01/28 03:03:55;;;;;;;32.30;17.17;;;-1.50;42.80;;;;;;4973377;28;20197;-67
2024/01/28 03:06:20;;;;;;;21.77;14.87;;;-1.50;42.80;;;;;;4991612;28;20255;-68
2024/01/28 03:08:46;;;;;;;22.17;14.70;;;-1.50;43.40;;;;;;4992055;28;20202;-68
2024/01/28 03:11:12;;;;;;;22.30;14.47;;;-1.50;42.80;;;;;;4992004;28;20673;-68
2024/01/28 03:13:37;;;;;;;23.70;15.80;;;-1.50;42.80;;;;;;4992232;28;20172;-69
2024/01/28 03:16:03;;;;;;;20.40;16.80;;;-1.50;42.80;;;;;;4991275;28;20251;-68
2024/01/28 03:18:29;;;;;;;19.13;13.50;;;-1.50;42.80;;;;;;4991660;28;20195;-68
2024/01/28 03:20:54;;;;;;;16.03;13.30;;;-1.50;42.80;;;;;;4991800;28;20185;-68
2024/01/28 03:23:20;;;;;;;20.60;13.70;;;-1.50;42.80;;;;;;4991919;28;20212;-68
2024/01/28 03:25:45;;;;;;;20.27;12.77;;;-1.50;42.10;;;;;;4975978;28;20188;-67
2024/01/28 03:28:11;;;;;;;21.20;15.10;;;-1.50;42.00;;;;;;4972467;28;20488;-67
2024/01/28 03:30:37;;;;;;;23.97;15.40;;;-1.50;41.30;;;;;;4972272;28;20653;-67
2024/01/28 03:33:02;;;;;;;26.97;13.33;;;-1.50;40.90;;;;;;4972536;28;20193;-67
2024/01/28 03:35:28;;;;;;;21.17;14.60;;;-1.50;41.50;;;;;;4985083;28;20215;-68
2024/01/28 03:37:54;;;;;;;15.13;13.20;;;-1.50;40.30;;;;;;4979126;28;20214;-67
2024/01/28 03:40:19;;;;;;;19.80;12.55;;;-1.70;40.10;;;;;;4972353;28;20173;-67
2024/01/28 03:42:45;;;;;;;21.13;13.33;;;-1.70;40.20;;;;;;4972460;28;20414;-68
2024/01/28 03:45:11;;;;;;;20.77;14.77;;;-1.70;41.60;;;;;;4971961;28;20185;-67
2024/01/28 03:47:36;;;;;;;19.87;12.13;;;-1.70;40.40;;;;;;4972214;28;20271;-68
2024/01/28 03:50:03;;;;;;;22.70;15.10;;;-1.80;40.40;;;;;;4972127;28;20180;-68
2024/01/28 03:52:29;;;;;;;18.98;14.75;;;-1.80;40.10;;;;;;4972228;28;20420;-68
2024/01/28 03:54:55;;;;;;;21.23;15.67;;;-1.70;42.60;;;;;;4973691;28;20202;-69
2024/01/28 03:57:20;;;;;;;19.73;14.37;;;-1.70;42.60;;;;;;4975640;28;20227;-69
2024/01/28 03:59:46;;;;;;;22.80;14.00;;;-1.70;42.60;;;;;;4975602;28;20175;-69
2024/01/28 04:02:14;;;;;;;26.05;13.68;;;-1.70;42.60;;;;;;4975432;28;20280;-68
2024/01/28 04:04:40;;;;;;;20.58;13.63;;;-1.70;42.60;;;;;;4975190;28;20178;-68
2024/01/28 04:07:05;;;;;;;16.93;14.00;;;-1.70;42.60;;;;;;4975180;28;20286;-69
2024/01/28 04:09:32;;;;;;;17.80;14.30;;;-1.70;42.60;;;;;;4975202;28;20420;-69
2024/01/28 04:11:58;;;;;;;18.65;12.45;;;-1.60;42.70;;;;;;4973955;28;20189;-69
2024/01/28 04:14:24;;;;;;;21.13;14.47;;;-1.60;43.80;;;;;;4975038;28;20210;-69
2024/01/28 04:16:50;;;;;;;24.07;16.03;;;-1.60;42.70;;;;;;4975139;28;20443;-69
2024/01/28 04:19:15;;;;;;;20.97;14.37;;;-1.70;42.60;;;;;;4979502;28;20420;-69
2024/01/28 04:21:41;;;;;;;21.50;15.83;;;-1.70;42.60;;;;;;4994697;28;20172;-68
2024/01/28 04:24:07;;;;;;;22.53;16.20;;;-1.80;42.50;;;;;;4994318;28;20176;-68
2024/01/28 04:26:33;;;;;;;19.53;13.93;;;-1.80;42.50;;;;;;4994121;28;20298;-68
2024/01/28 04:28:59;;;;;;;16.47;14.50;;;-1.80;42.50;;;;;;4994202;28;20258;-67
2024/01/28 04:31:26;;;;;;;18.57;13.20;;;-1.80;42.50;;;;;;4994512;28;20454;-68
2024/01/28 04:33:52;;;;;;;23.13;14.95;;;-1.80;42.50;;;;;;4994278;28;20175;-68
2024/01/28 04:36:18;;;;;;;18.33;14.20;;;-1.80;43.10;;;;;;4993789;28;20231;-68
2024/01/28 04:38:43;;;;;;;20.00;14.10;;;-1.80;43.40;;;;;;4994151;28;20190;-70
2024/01/28 04:41:09;;;;;;;26.50;13.20;;;-1.80;44.40;;;;;;4994060;28;20594;-69
2024/01/28 04:43:38;;;;;;;15.50;12.80;;;-1.70;44.50;;;;;;4994164;28;20189;-68
2024/01/28 04:46:03;;;;;;;21.80;14.70;;;-1.70;45.40;;;;;;4993618;28;20215;-69
2024/01/28 04:48:29;;;;;;;18.53;12.30;;;-1.60;44.40;;;;;;4993915;28;20236;-69
2024/01/28 04:50:55;;;;;;;14.70;11.50;;;-1.70;42.90;;;;;;4993784;28;20183;-69
2024/01/28 04:53:20;;;;;;;26.43;14.80;;;-1.70;42.60;;;;;;4993878;28;20181;-69
2024/01/28 04:55:46;;;;;;;17.97;12.90;;;-1.80;42.50;;;;;;4993204;28;20292;-69
2024/01/28 04:58:11;;;;;;;20.13;15.20;;;-1.80;42.60;;;;;;4986472;28;20188;-69
2024/01/28 05:00:37;;;;;;;17.13;12.93;;;-1.70;43.30;;;;;;4974319;28;20176;-69
2024/01/28 05:03:03;;;;;;;19.40;14.10;;;-1.70;42.60;;;;;;4974392;28;20177;-69
2024/01/28 05:05:28;;;;;;;16.90;12.00;;;-1.70;42.60;;;;;;4973909;28;20322;-69
2024/01/28 05:07:54;;;;;;;15.77;12.57;;;-1.80;42.50;;;;;;4974071;28;20258;-69
2024/01/28 05:10:19;;;;;;;17.57;10.30;;;-1.70;42.30;;;;;;4974115;28;20259;-69
2024/01/28 05:12:45;;;;;;;16.63;11.73;;;-1.80;41.30;;;;;;4974186;28;20599;-69
2024/01/28 05:15:14;;;;;;;14.70;12.30;;;-1.80;40.70;;;;;;4983498;28;20219;-70
2024/01/28 05:17:39;;;;;;;17.35;13.25;;;-1.80;41.10;;;;;;4973863;28;20282;-68
2024/01/28 05:20:08;;;;;;;18.37;12.20;;;-1.80;40.80;;;;;;4974158;28;20216;-69
2024/01/28 05:22:34;;;;;;;17.17;13.10;;;-1.80;41.20;;;;;;4973914;28;20172;-69
2024/01/28 05:25:02;;;;;;;15.70;12.23;;;-1.90;41.30;;;;;;4973670;28;20238;-69
2024/01/28 05:27:31;;;;;;;17.50;11.98;;;-1.90;41.20;;;;;;4974165;28;20669;-69
2024/01/28 05:29:58;;;;;;;23.55;12.82;;;-1.90;41.00;;;;;;4973951;28;20279;-69
2024/01/28 05:32:25;;;;;;;21.27;13.23;;;-1.90;40.50;;;;;;4973778;28;20174;-70
2024/01/28 05:34:51;;;;;;;19.02;13.20;;;-1.90;39.80;;;;;;4973532;28;20243;-69
2024/01/28 05:37:17;;;;;;;16.10;11.83;;;-1.90;40.50;;;;;;4992223;28;20211;-70
2024/01/28 05:39:42;;;;;;;21.00;15.27;;;-2.00;40.00;;;;;;4992393;28;20233;-69
2024/01/28 05:42:08;;;;;;;18.37;13.17;;;-2.00;39.90;;;;;;4985823;28;20179;-69
2024/01/28 05:44:33;;;;;;;16.20;13.00;;;-2.00;40.70;;;;;;4984973;28;20199;-70
2024/01/28 05:46:59;;;;;;;21.83;13.60;;;-2.10;40.50;;;;;;4972004;28;20224;-70
2024/01/28 05:49:24;;;;;;;14.13;11.90;;;-2.10;40.20;;;;;;4972098;28;20647;-69
2024/01/28 05:51:50;;;;;;;18.97;11.97;;;-2.10;40.90;;;;;;4973762;28;20196;-69
2024/01/28 05:54:16;;;;;;;20.40;11.03;;;-2.10;40.50;;;;;;4973789;28;20204;-69
2024/01/28 05:56:42;;;;;;;16.35;11.38;;;-2.00;39.70;;;;;;4973131;28;20214;-69
2024/01/28 05:59:08;;;;;;;15.13;12.40;;;-2.10;39.10;;;;;;4973445;28;20172;-69
2024/01/28 06:01:33;;;;;;;16.20;12.10;;;-2.10;39.80;;;;;;4983148;28;20429;-69
2024/01/28 06:03:59;;;;;;;14.80;12.07;;;-2.20;39.40;;;;;;4992919;28;20198;-69
2024/01/28 06:06:24;;;;;;;15.77;11.23;;;-2.20;40.00;;;;;;4992630;28;20222;-69
2024/01/28 06:08:50;;;;;;;18.17;12.80;;;-2.20;40.40;;;;;;4992894;28;20551;-70
2024/01/28 06:11:15;;;;;;;18.03;10.30;;;-2.20;40.60;;;;;;4992552;28;20630;-69
2024/01/28 06:13:41;;;;;;;17.27;11.77;;;-2.20;40.10;;;;;;4992937;28;20187;-69
2024/01/28 06:16:07;;;;;;;17.40;11.67;;;-2.20;40.00;;;;;;4991937;28;20214;-69
2024/01/28 06:18:33;;;;;;;15.02;11.82;;;-2.10;39.80;;;;;;4990644;28;20260;-69
2024/01/28 06:20:58;;;;;;;19.40;11.37;;;-2.20;39.80;;;;;;4987479;28;20320;-68
2024/01/28 06:23:24;;;;;;;20.37;13.13;;;-2.20;39.20;;;;;;4973367;28;20180;-70
2024/01/28 06:25:49;;;;;;;18.27;11.77;;;-2.20;39.60;;;;;;4973234;28;20225;-69
2024/01/28 06:28:15;;;;;;;15.50;11.53;;;-2.20;39.30;;;;;;4973147;28;20650;-69
2024/01/28 06:30:40;;;;;;;13.07;10.10;;;-2.20;39.70;;;;;;4978923;28;20191;-68
2024/01/28 06:33:06;;;;;;;19.07;13.17;;;-2.20;39.50;;;;;;4992672;28;20220;-68
2024/01/28 06:35:31;;;;;;;12.40;9.70;;;-2.20;39.10;;;;;;4992412;28;20253;-69
2024/01/28 06:37:57;;;;;;;21.03;12.90;;;-2.20;39.10;;;;;;4992870;28;20183;-68
2024/01/28 06:40:23;;;;;;;14.93;11.07;;;-2.30;37.30;;;;;;4992586;28;20187;-68
2024/01/28 06:42:48;;;;;;;18.53;11.10;;;-2.30;39.50;;;;;;4975313;28;20192;-68
2024/01/28 06:45:14;;;;;;;15.63;11.47;;;-2.30;39.60;;;;;;4972428;28;20551;-68
2024/01/28 06:47:39;;;;;;;16.13;12.90;;;-2.30;39.30;;;;;;4973036;28;20588;-68
2024/01/28 06:50:06;;;;;;;17.53;12.23;;;-2.30;38.40;;;;;;4972688;28;20180;-68
2024/01/28 06:52:31;;;;;;;15.60;10.90;;;-2.30;39.40;;;;;;4986832;28;20196;-68
2024/01/28 06:54:58;;;;;;;26.23;14.80;;;-2.20;39.20;;;;;;4992197;28;20211;-68
2024/01/28 06:57:24;;;;;;;14.88;11.35;;;-2.30;38.50;;;;;;4991901;28;20439;-68
2024/01/28 06:59:50;;;;;;;13.20;10.67;;;-2.30;39.10;;;;;;4992215;28;20175;-67
2024/01/28 07:02:15;;;;;;;15.00;10.93;;;-2.20;39.40;;;;;;4979874;28;20192;-67
2024/01/28 07:04:41;;;;;;;14.87;10.03;;;-2.30;38.80;;;;;;4972308;28;20550;-68
2024/01/28 07:07:07;;;;;;;11.70;8.97;;;-2.30;39.30;;;;;;5001824;23;20460;-72
2024/01/28 07:09:32;;;;;;;17.67;11.43;;;-2.30;39.50;;;;;;4991230;28;20186;-72
2024/01/28 07:11:58;;;;;;;14.57;9.33;;;-2.30;38.90;;;;;;4991712;28;20261;-72
2024/01/28 07:14:24;;;;;;;17.73;11.43;;;-2.20;39.70;;;;;;4991543;28;20224;-71
2024/01/28 07:16:49;;;;;;;11.93;9.90;;;-2.20;38.90;;;;;;4982706;28;20271;-72
2024/01/28 07:19:15;;;;;;;15.27;9.90;;;-2.30;37.90;;;;;;4970653;28;20185;-71
2024/01/28 07:21:41;;;;;;;14.70;9.30;;;-2.30;39.20;;;;;;4969800;28;20509;-71
2024/01/28 07:24:07;;;;;;;10.97;8.93;;;-2.20;39.50;;;;;;4970601;28;20667;-71
2024/01/28 07:26:32;;;;;;;16.43;11.07;;;-2.20;39.70;;;;;;4971715;28;20235;-70
2024/01/28 07:28:58;;;;;;;15.70;9.80;;;-2.20;39.50;;;;;;4970917;28;20430;-70
2024/01/28 07:31:23;;;;;;;13.07;11.33;;;-2.20;38.70;;;;;;4974488;28;20187;-71
2024/01/28 07:33:49;;;;;;;19.40;11.90;;;-2.20;39.70;;;;;;4976060;28;20274;-71
2024/01/28 07:36:16;;;;;;;21.07;13.80;;;-2.20;40.50;;;;;;4975587;28;20219;-72
2024/01/28 07:38:42;;;;;;;19.58;14.73;;;-2.20;41.40;;;;;;4975924;28;20192;-72
2024/01/28 07:41:14;;;;;;;16.50;12.10;;;-2.00;42.40;;;;;;4975325;28;20180;-72
2024/01/28 07:43:43;;;;;;;33.85;14.25;;;-2.00;42.40;;;;;;4955968;28;20215;-72
2024/01/28 07:46:09;;;;;;;22.70;15.23;;;-1.90;42.50;;;;;;4955489;28;20287;-72
2024/01/28 07:48:34;;;;;;;16.05;12.65;;;-1.80;42.50;;;;;;4955418;28;20191;-72
2024/01/28 07:51:00;;;;;;;20.47;14.27;;;-1.80;42.50;;;;;;4971918;28;20187;-72
2024/01/28 07:53:26;;;;;;;23.83;14.73;;;-1.70;43.40;;;;;;4974913;28;20187;-72
2024/01/28 07:55:53;;;;;;;22.77;13.80;;;-1.60;43.30;;;;;;4974507;28;20212;-71
2024/01/28 07:58:18;;;;;;;19.40;13.45;;;-1.60;42.70;;;;;;4973284;28;20177;-72
2024/01/28 08:00:44;;;;;;;18.07;13.90;;;-1.60;42.70;;;;;;4973297;28;20201;-70
2024/01/28 08:03:12;;;;;;;19.03;13.83;;;-1.50;43.20;;;;;;4973521;28;20180;-71
2024/01/28 08:05:38;;;;;;;22.65;15.20;;;-1.40;44.60;;;;;;4973145;28;20259;-72
2024/01/28 08:08:03;;;;;;;19.47;14.10;;;-1.40;42.90;;;;;;4974456;28;20219;-72
2024/01/28 08:10:29;;;;;;;18.57;14.40;;;-1.40;43.50;;;;;;4974250;28;20192;-72
2024/01/28 08:12:55;;;;;;;19.40;13.80;;;-1.30;43.80;;;;;;4974368;28;20420;-72
2024/01/28 08:15:21;;;;;;;20.55;13.77;;;-1.30;44.00;;;;;;4972794;28;20194;-72
2024/01/28 08:17:49;;;;;;;22.77;14.43;;;-1.20;44.40;;;;;;4974428;28;20185;-71
2024/01/28 08:20:14;;;;;;;22.02;13.55;;;-1.20;44.80;;;;;;4972819;28;20189;-72
2024/01/28 08:22:43;;;;;;;16.10;11.70;;;-1.10;44.60;;;;;;4974514;28;20176;-69
2024/01/28 08:25:11;;;;;;;16.88;13.55;;;-1.10;44.50;;;;;;4972906;28;20188;-71
2024/01/28 08:27:38;;;;;;;19.13;14.88;;;-1.10;43.80;;;;;;4974227;28;20664;-70
2024/01/28 08:30:06;;;;;;;23.75;14.55;;;-1.00;44.60;;;;;;4974329;28;20169;-71
2024/01/28 08:32:32;;;;;;;15.73;13.32;;;-0.90;45.00;;;;;;4973334;28;20238;-72
2024/01/28 08:34:57;;;;;;;20.60;14.43;;;-0.90;43.80;;;;;;4973747;28;20307;-71
2024/01/28 08:37:23;;;;;;;20.93;15.07;;;-0.90;44.10;;;;;;4972702;28;20201;-70
2024/01/28 08:39:48;;;;;;;16.50;14.50;;;-0.90;43.50;;;;;;4971896;28;20290;-70
2024/01/28 08:42:15;;;;;;;17.40;11.73;;;-0.80;43.70;;;;;;4972487;28;20673;-70
2024/01/28 08:44:41;;;;;;;21.20;12.88;;;-0.70;44.50;;;;;;4974453;28;20177;-71
2024/01/28 08:47:10;;;;;;;17.40;12.33;;;-0.70;44.00;;;;;;4974127;28;20636;-70
2024/01/28 08:49:36;;;;;;;16.05;11.57;;;-0.60;44.90;;;;;;4972855;28;20687;-70
2024/01/28 08:52:01;;;;;;;15.80;11.53;;;-0.50;45.20;;;;;;4973647;28;20449;-70
2024/01/28 08:54:27;;;;;;;15.70;13.63;;;-0.50;44.00;;;;;;4973618;28;20205;-70
2024/01/28 08:56:52;;;;;;;17.57;12.40;;;-0.40;43.70;;;;;;4972269;28;20205;-74
2024/01/28 08:59:18;;;;;;;20.20;13.33;;;-0.40;43.70;;;;;;4972506;28;20257;-74
2024/01/28 09:01:44;;;;;;;23.63;15.60;;;-0.30;43.70;;;;;;4973445;28;20216;-74
2024/01/28 09:04:10;;;;;;;19.73;12.73;;;-0.30;43.70;;;;;;4973634;28;20181;-74
2024/01/28 09:06:36;;;;;;;15.60;11.60;;;-0.20;42.60;;;;;;4973547;28;20228;-74
2024/01/28 09:09:07;;;;;;;16.07;12.53;;;-0.10;42.70;;;;;;4973523;28;20257;-72
2024/01/28 09:11:33;;;;;;;19.27;13.18;;;0.00;43.00;;;;;;4973388;28;20648;-73
2024/01/28 09:14:00;;;;;;;21.23;12.60;;;0.10;42.60;;;;;;4973514;28;20268;-75
2024/01/28 09:16:26;;;;;;;18.40;13.27;;;0.10;42.90;;;;;;4972973;28;20480;-74
2024/01/28 09:18:51;;;;;;;17.67;13.50;;;0.20;42.10;;;;;;4973267;28;20228;-74
2024/01/28 09:21:17;;;;;;;23.43;15.00;;;0.30;42.10;;;;;;4974968;28;20429;-74
2024/01/28 09:23:42;;;;;;;16.03;13.43;;;0.40;41.80;;;;;;4973121;28;20177;-71
2024/01/28 09:26:08;;;;;;;15.80;13.07;;;0.50;38.50;;;;;;4978783;28;20216;-70
2024/01/28 09:28:34;;;;;;;17.00;12.23;;;0.60;37.00;;;;;;4971539;28;20192;-70
2024/01/28 09:30:59;;;;;;;15.20;12.20;;;0.70;36.80;;;;;;4971936;28;20181;-71
2024/01/28 09:33:26;;;;;;;12.93;11.43;;;0.80;38.20;;;;;;4973120;28;20637;-70
2024/01/28 09:35:52;;;;;;;12.48;10.13;;;0.80;36.50;;;;;;4972938;28;20205;-71
2024/01/28 09:38:18;;;;;;;12.10;9.43;;;0.90;38.30;;;;;;4971993;28;20201;-70
2024/01/28 09:40:44;;;;;;;17.80;12.05;;;1.00;36.80;;;;;;4972518;28;20417;-69
2024/01/28 09:43:27;;;;;;;13.83;11.10;;;1.00;36.00;;;;;;4973543;28;20189;-70
2024/01/28 09:45:53;;;;;;;17.58;9.90;;;1.10;36.80;;;;;;4972745;28;20695;-69
2024/01/28 09:48:20;;;;;;;13.35;11.07;;;1.20;35.00;;;;;;4972653;28;20250;-69
2024/01/28 09:50:46;;;;;;;15.00;9.93;;;1.20;34.60;;;;;;4972776;28;20186;-70
2024/01/28 09:53:13;;;;;;;14.97;11.07;;;1.30;32.50;;;;;;4971936;28;20182;-70
2024/01/28 09:55:42;;;;;;;13.85;11.00;;;1.40;31.60;;;;;;4972366;28;20955;-67
2024/01/28 09:58:08;;;;;;;13.32;9.70;;;1.50;31.30;;;;;;4972760;28;20207;-71
2024/01/28 10:00:35;;;;;;;10.10;8.25;;;1.50;30.10;;;;;;4972885;28;20174;-71
2024/01/28 10:03:00;;;;;;;13.77;10.15;;;1.60;29.80;;;;;;4972966;28;20188;-70
2024/01/28 10:05:26;;;;;;;13.57;9.83;;;1.80;30.10;;;;;;4971048;28;20641;-70
2024/01/28 10:08:03;;;;;;;13.97;10.43;;;1.90;30.80;;;;;;4967854;28;20478;-71
2024/01/28 10:10:28;;;;;;;12.10;10.82;;;2.10;29.30;;;;;;4969476;28;20640;-71
2024/01/28 10:12:55;;;;;;;18.83;10.00;;;2.30;28.50;;;;;;4972504;28;20188;-71
2024/01/28 10:15:21;;;;;;;11.90;10.30;;;2.40;29.00;;;;;;4973001;28;20718;-71
2024/01/28 10:17:48;;;;;;;11.40;9.20;;;2.50;28.70;;;;;;4971648;28;20216;-75
2024/01/28 10:20:19;;;;;;;13.40;9.27;;;2.70;26.90;;;;;;4971674;28;20205;-73
2024/01/28 10:22:48;;;;;;;15.83;11.27;;;2.70;26.80;;;;;;4969892;28;20455;-71
2024/01/28 10:25:16;;;;;;;13.30;9.40;;;2.80;25.80;;;;;;4970690;28;20440;-71
2024/01/28 10:27:42;;;;;;;13.10;11.10;;;3.00;26.80;;;;;;4971476;28;20954;-72
2024/01/28 10:30:09;;;;;;;9.70;8.70;;;3.10;26.40;;;;;;4972744;28;20427;-70
2024/01/28 10:32:34;;;;;;;19.63;8.60;;;3.20;25.70;;;;;;4971743;28;20436;-70
2024/01/28 10:35:00;;;;;;;10.63;9.50;;;3.30;23.00;;;;;;4971216;28;20471;-70
2024/01/28 10:37:32;;;;;;;12.83;9.73;;;3.50;22.70;;;;;;4973040;28;20239;-71
2024/01/28 10:40:08;;;;;;;9.87;7.53;;;3.60;19.70;;;;;;4972108;28;20653;-70
2024/01/28 10:42:39;;;;;;;9.57;7.07;;;3.70;17.60;;;;;;4974747;28;20423;-69
2024/01/28 10:45:10;;;;;;;13.20;6.87;;;3.90;17.90;;;;;;4973067;28;20788;-71
2024/01/28 10:47:37;;;;;;;8.53;7.50;;;4.00;16.20;;;;;;4971660;28;20455;-69
2024/01/28 10:50:08;;;;;;;14.73;7.40;;;4.10;14.30;;;;;;4972908;28;20492;-69
2024/01/28 10:52:37;;;;;;;7.90;7.03;;;4.20;13.80;;;;;;4972533;28;20443;-70
2024/01/28 10:55:04;;;;;;;7.00;5.90;;;4.30;13.70;;;;;;4972589;28;20471;-70
2024/01/28 10:57:32;;;;;;;11.23;5.87;;;4.40;11.50;;;;;;4972711;28;20827;-69
2024/01/28 10:59:59;;;;;;;9.33;7.63;;;4.50;12.60;;;;;;4970654;28;20455;-68
2024/01/28 11:02:26;;;;;;;8.03;6.17;;;4.60;9.70;;;;;;4972938;28;20436;-69
2024/01/28 11:04:52;;;;;;;9.73;6.70;;;4.70;9.00;;;;;;4975683;28;20463;-69
2024/01/28 11:07:21;;;;;;;7.63;5.30;;;4.80;7.30;;;;;;4976865;28;20971;-70
2024/01/28 11:09:48;;;;;;;8.47;5.60;;;5.00;6.30;;;;;;4976030;28;20827;-70
2024/01/28 11:12:14;;;;;;;9.80;6.60;;;5.10;4.00;;;;;;4978306;28;20493;-70
2024/01/28 11:14:39;;;;;;;6.90;6.00;;;5.30;3.90;;;;;;4978143;28;20519;-70
2024/01/28 11:17:09;;;;;;;13.30;5.43;;;5.40;2.50;;;;;;4977429;28;20208;-71
2024/01/28 11:19:34;;;;;;;6.83;5.50;;;5.60;1.80;;;;;;4976065;28;20656;-72
2024/01/28 11:22:02;;;;;;;10.13;5.37;;;5.80;1.00;;;;;;4976508;28;20488;-70
2024/01/28 11:24:28;;;;;;;7.30;5.43;;;6.00;1.00;;;;;;4977988;28;20199;-71
2024/01/28 11:26:57;;;;;;;9.27;5.60;;;6.10;1.00;;;;;;4976249;28;20450;-70
2024/01/28 11:29:32;;;;;;;7.67;5.10;;;6.20;1.00;;;;;;4974706;28;20442;-70
2024/01/28 11:31:58;;;;;;;6.93;5.73;;;6.30;1.00;;;;;;4977397;28;20509;-69
2024/01/28 11:34:23;;;;;;;8.03;4.70;;;6.40;1.00;;;;;;4978661;28;20495;-71
2024/01/28 11:36:51;;;;;;;5.47;4.53;;;6.50;1.00;;;;;;4975261;28;20449;-71
2024/01/28 11:39:40;;;;;;;6.10;5.07;;;6.60;1.00;;;;;;4974830;28;20251;-70
2024/01/28 11:42:06;;;;;;;6.97;4.73;;;6.80;1.00;;;;;;4976288;28;20407;-70
2024/01/28 11:44:31;;;;;;;5.40;4.60;;;6.90;1.00;;;;;;4976613;28;20441;-69
2024/01/28 11:46:57;;;;;;;5.80;4.60;;;7.00;1.00;;;;;;4976377;28;20254;-70
2024/01/28 11:49:23;;;;;;;7.20;4.67;;;7.20;1.00;;;;;;4976544;28;20209;-70
2024/01/28 11:51:54;;;;;;;8.73;5.60;;;7.30;1.00;;;;;;4976386;28;20439;-70
2024/01/28 11:54:19;;;;;;;7.67;5.00;;;7.50;1.00;;;;;;4975925;28;20268;-69
2024/01/28 11:56:45;;;;;;;6.33;4.87;;;7.60;1.00;;;;;;4975662;28;20574;-70
2024/01/28 11:59:11;;;;;;;5.70;4.60;;;7.80;1.00;;;;;;4976094;28;20248;-70
2024/01/28 12:01:37;;;;;;;5.70;4.43;;;7.80;1.00;;;;;;4975378;28;20177;-70
2024/01/28 12:04:03;;;;;;;4.97;3.83;;;7.90;1.00;;;;;;4975530;28;20739;-71
2024/01/28 12:06:31;;;;;;;4.27;3.63;;;8.00;1.00;;;;;;4975251;28;20244;-70
2024/01/28 12:08:58;;;;;;;5.63;3.67;;;8.20;1.00;;;;;;4975475;28;20503;-70
2024/01/28 12:11:25;;;;;;;5.50;3.90;;;8.20;1.00;;;;;;4975391;28;20532;-75
2024/01/28 12:13:51;;;;;;;5.30;4.23;;;8.30;1.00;;;;;;4974878;28;20471;-71
2024/01/28 12:16:19;;;;;;;4.60;3.80;;;8.40;1.00;;;;;;4974056;28;20996;-71
2024/01/28 12:18:44;;;;;;;4.87;3.93;;;8.50;1.00;;;;;;4977850;28;20185;-71
2024/01/28 12:21:27;;;;;;;5.20;3.90;;;8.50;1.00;;;;;;4978874;28;20432;-72
2024/01/28 12:24:02;;;;;;;5.23;3.67;;;8.60;1.00;;;;;;4975077;28;20276;-72
2024/01/28 12:26:34;;;;;;;7.80;5.63;;;8.70;1.00;;;;;;4975201;28;20452;-71
2024/01/28 12:29:02;;;;;;;5.33;4.70;;;8.60;1.00;;;;;;4973436;28;20433;-71